createdAt,value
2022-07-26T00:00:10.605Z,99159.00
2022-07-26T00:01:45.824Z,99160.00
2022-07-26T00:03:19.334Z,99163.00
2022-07-26T00:04:52.864Z,99174.00
2022-07-26T00:06:25.581Z,99161.00
2022-07-26T00:08:10.556Z,99159.00
2022-07-26T00:09:48.213Z,99164.00
2022-07-26T00:11:23.210Z,99153.00
2022-07-26T00:12:56.706Z,99163.00
2022-07-26T00:14:30.185Z,99163.00
2022-07-26T00:16:05.205Z,99156.00
2022-07-26T00:17:40.664Z,99156.00
2022-07-26T00:19:14.068Z,99161.00
2022-07-26T00:20:48.164Z,99156.00
2022-07-26T00:22:36.715Z,99157.00
2022-07-26T00:24:10.744Z,99153.00
2022-07-26T00:25:44.346Z,99152.00
2022-07-26T00:27:17.790Z,99147.00
2022-07-26T00:28:51.176Z,99149.00
2022-07-26T00:30:25.389Z,99150.00
2022-07-26T00:31:58.037Z,99154.00
2022-07-26T00:33:32.925Z,99148.00
2022-07-26T00:35:07.223Z,99151.00
2022-07-26T00:36:41.071Z,99155.00
2022-07-26T00:38:15.386Z,99154.00
2022-07-26T00:39:48.718Z,99162.00
2022-07-26T00:41:22.072Z,99160.00
2022-07-26T00:42:55.643Z,99157.00
2022-07-26T00:44:39.167Z,99161.00
2022-07-26T00:46:12.565Z,99161.00
2022-07-26T00:47:46.709Z,99171.00
2022-07-26T00:49:21.563Z,99161.00
2022-07-26T00:50:56.180Z,99164.00
2022-07-26T00:52:28.725Z,99167.00
2022-07-26T00:54:02.688Z,99163.00
2022-07-26T00:55:38.503Z,99163.00
2022-07-26T00:57:12.323Z,99171.00
2022-07-26T00:58:46.197Z,99169.00
2022-07-26T01:00:30.865Z,99169.00
2022-07-26T01:02:15.102Z,99177.00
2022-07-26T01:03:56.506Z,99174.00
2022-07-26T01:05:37.401Z,99166.00
2022-07-26T01:07:16.276Z,99170.00
2022-07-26T01:08:52.231Z,99179.00
2022-07-26T01:10:27.946Z,99181.00
2022-07-26T01:12:05.489Z,99186.00
2022-07-26T01:13:49.027Z,99173.00
2022-07-26T01:15:24.999Z,99180.00
2022-07-26T01:17:01.416Z,99169.00
2022-07-26T01:18:38.822Z,99170.00
2022-07-26T01:20:15.085Z,99166.00
2022-07-26T01:21:51.160Z,99171.00
2022-07-26T01:23:24.545Z,99169.00
2022-07-26T01:24:58.131Z,99175.00
2022-07-26T01:26:30.959Z,99168.00
2022-07-26T01:28:06.015Z,99165.00
2022-07-26T01:29:39.511Z,99165.00
2022-07-26T01:31:11.994Z,99165.00
2022-07-26T01:32:45.994Z,99170.00
2022-07-26T01:34:19.869Z,99163.00
2022-07-26T01:35:52.253Z,99160.00
2022-07-26T01:37:27.254Z,99155.00
2022-07-26T01:39:00.720Z,99163.00
2022-07-26T01:40:34.454Z,99165.00
2022-07-26T01:42:08.119Z,99161.00
2022-07-26T01:43:41.610Z,99168.00
2022-07-26T01:45:15.193Z,99168.00
2022-07-26T01:46:48.650Z,99167.00
2022-07-26T01:48:22.088Z,99165.00
2022-07-26T01:49:55.802Z,99173.00
2022-07-26T01:51:28.409Z,99172.00
2022-07-26T01:53:03.272Z,99174.00
2022-07-26T01:54:39.914Z,99181.00
2022-07-26T01:56:12.897Z,99182.00
2022-07-26T01:57:47.094Z,99177.00
2022-07-26T01:59:20.760Z,99185.00
2022-07-26T02:00:54.323Z,99183.00
2022-07-26T02:02:29.810Z,99180.00
2022-07-26T02:04:03.371Z,99181.00
2022-07-26T02:05:38.750Z,99189.00
2022-07-26T02:07:14.484Z,99182.00
2022-07-26T02:08:49.384Z,99193.00
2022-07-26T02:10:21.945Z,99196.00
2022-07-26T02:11:55.427Z,99191.00
2022-07-26T02:13:29.176Z,99190.00
2022-07-26T02:15:03.474Z,99191.00
2022-07-26T02:16:37.187Z,99201.00
2022-07-26T02:18:10.708Z,99201.00
2022-07-26T02:19:44.661Z,99200.00
2022-07-26T02:21:18.323Z,99189.00
2022-07-26T02:22:51.766Z,99198.00
2022-07-26T02:24:28.902Z,99198.00
2022-07-26T02:26:03.477Z,99205.00
2022-07-26T02:27:36.860Z,99203.00
2022-07-26T02:29:10.319Z,99200.00
2022-07-26T02:30:44.120Z,99205.00
2022-07-26T02:32:17.817Z,99199.00
2022-07-26T02:33:51.173Z,99194.00
2022-07-26T02:35:24.576Z,99199.00
2022-07-26T02:36:59.079Z,99200.00
2022-07-26T02:38:32.417Z,99205.00
2022-07-26T02:40:09.098Z,99207.00
2022-07-26T02:41:42.509Z,99205.00
2022-07-26T02:43:15.904Z,99204.00
2022-07-26T02:44:49.261Z,99209.00
2022-07-26T02:46:22.691Z,99205.00
2022-07-26T02:47:57.507Z,99207.00
2022-07-26T02:49:30.928Z,99202.00
2022-07-26T02:51:05.101Z,99204.00
2022-07-26T02:52:38.434Z,99208.00
2022-07-26T02:54:12.308Z,99201.00
2022-07-26T02:55:47.169Z,99202.00
2022-07-26T02:57:20.649Z,99195.00
2022-07-26T02:58:53.979Z,99198.00
2022-07-26T03:00:28.768Z,99195.00
2022-07-26T03:02:02.402Z,99199.00
2022-07-26T03:03:36.425Z,99203.00
2022-07-26T03:05:11.389Z,99202.00
2022-07-26T03:06:45.224Z,99201.00
2022-07-26T03:08:18.612Z,99211.00
2022-07-26T03:09:50.972Z,99207.00
2022-07-26T03:11:25.774Z,99197.00
2022-07-26T03:12:59.846Z,99198.00
2022-07-26T03:14:33.125Z,99198.00
2022-07-26T03:16:08.716Z,99195.00
2022-07-26T03:17:42.152Z,99202.00
2022-07-26T03:19:15.729Z,99204.00
2022-07-26T03:20:48.376Z,99200.00
2022-07-26T03:22:21.820Z,99195.00
2022-07-26T03:23:55.275Z,99206.00
2022-07-26T03:25:28.632Z,99209.00
2022-07-26T03:27:03.437Z,99204.00
2022-07-26T03:28:37.184Z,99204.00
2022-07-26T03:30:12.907Z,99198.00
2022-07-26T03:31:46.286Z,99204.00
2022-07-26T03:33:19.607Z,99208.00
2022-07-26T03:34:53.408Z,99213.00
2022-07-26T03:36:26.765Z,99207.00
2022-07-26T03:38:00.242Z,99206.00
2022-07-26T03:39:33.595Z,99209.00
2022-07-26T03:41:07.427Z,99203.00
2022-07-26T03:42:42.296Z,99211.00
2022-07-26T03:44:15.579Z,99212.00
2022-07-26T03:45:49.249Z,99205.00
2022-07-26T03:47:23.167Z,99210.00
2022-07-26T03:48:56.287Z,99207.00
2022-07-26T03:50:29.944Z,99202.00
2022-07-26T03:52:03.424Z,99211.00
2022-07-26T03:53:36.859Z,99215.00
2022-07-26T03:55:28.469Z,99213.00
2022-07-26T03:57:02.139Z,99212.00
2022-07-26T03:58:35.876Z,99200.00
2022-07-26T04:00:13.451Z,99207.00
2022-07-26T04:01:48.599Z,99213.00
2022-07-26T04:03:22.606Z,99205.00
2022-07-26T04:04:55.929Z,99216.00
2022-07-26T04:06:30.014Z,99211.00
2022-07-26T04:08:03.594Z,99219.00
2022-07-26T04:09:37.643Z,99217.00
2022-07-26T04:11:10.391Z,99207.00
2022-07-26T04:12:43.973Z,99222.00
2022-07-26T04:14:19.029Z,99219.00
2022-07-26T04:15:52.481Z,99228.00
2022-07-26T04:17:24.910Z,99230.00
2022-07-26T04:18:58.343Z,99228.00
2022-07-26T04:20:30.880Z,99230.00
2022-07-26T04:22:04.249Z,99236.00
2022-07-26T04:23:37.548Z,99237.00
2022-07-26T04:25:11.949Z,99252.00
2022-07-26T04:26:46.324Z,99241.00
2022-07-26T04:28:20.334Z,99245.00
2022-07-26T04:29:55.199Z,99251.00
2022-07-26T04:31:28.614Z,99248.00
2022-07-26T04:33:10.148Z,99243.00
2022-07-26T04:34:43.458Z,99257.00
2022-07-26T04:36:17.018Z,99254.00
2022-07-26T04:37:50.704Z,99246.00
2022-07-26T04:39:24.575Z,99252.00
2022-07-26T04:40:58.241Z,99254.00
2022-07-26T04:42:30.743Z,99256.00
2022-07-26T04:44:04.031Z,99250.00
2022-07-26T04:45:37.989Z,99247.00
2022-07-26T04:47:11.357Z,99254.00
2022-07-26T04:48:44.777Z,99257.00
2022-07-26T04:50:18.393Z,99254.00
2022-07-26T04:51:54.065Z,99258.00
2022-07-26T04:53:30.882Z,99260.00
2022-07-26T04:55:04.787Z,99248.00
2022-07-26T04:56:38.619Z,99261.00
2022-07-26T04:58:12.545Z,99255.00
2022-07-26T04:59:53.747Z,99253.00
2022-07-26T05:01:33.202Z,99253.00
2022-07-26T05:03:07.142Z,99255.00
2022-07-26T05:04:40.557Z,99250.00
2022-07-26T05:06:13.950Z,99258.00
2022-07-26T05:07:50.625Z,99255.00
2022-07-26T05:09:23.970Z,99261.00
2022-07-26T05:10:57.302Z,99261.00
2022-07-26T05:12:31.190Z,99259.00
2022-07-26T05:14:05.158Z,99259.00
2022-07-26T05:15:38.790Z,99262.00
2022-07-26T05:17:13.529Z,99265.00
2022-07-26T05:18:51.233Z,99271.00
2022-07-26T05:20:25.413Z,99258.00
2022-07-26T05:21:59.260Z,99264.00
2022-07-26T05:23:33.104Z,99273.00
2022-07-26T05:25:09.222Z,99270.00
2022-07-26T05:26:42.880Z,99276.00
2022-07-26T05:28:16.283Z,99276.00
2022-07-26T05:29:49.638Z,99273.00
2022-07-26T05:31:23.034Z,99267.00
2022-07-26T05:32:57.829Z,99269.00
2022-07-26T05:34:31.658Z,99268.00
2022-07-26T05:36:05.809Z,99269.00
2022-07-26T05:37:39.587Z,99269.00
2022-07-26T05:39:15.926Z,99266.00
2022-07-26T05:40:50.823Z,99262.00
2022-07-26T05:42:25.638Z,99265.00
2022-07-26T05:43:59.488Z,99260.00
2022-07-26T05:45:33.315Z,99261.00
2022-07-26T05:47:08.512Z,99257.00
2022-07-26T05:48:43.937Z,99263.00
2022-07-26T05:50:17.353Z,99260.00
2022-07-26T05:51:50.674Z,99263.00
2022-07-26T05:53:24.514Z,99258.00
2022-07-26T05:54:58.148Z,99261.00
2022-07-26T05:56:31.611Z,99263.00
2022-07-26T05:58:05.012Z,99260.00
2022-07-26T05:59:38.434Z,99263.00
2022-07-26T06:01:11.886Z,99260.00
2022-07-26T06:02:45.644Z,99269.00
2022-07-26T06:04:19.466Z,99269.00
2022-07-26T06:05:56.581Z,99262.00
2022-07-26T06:07:29.984Z,99268.00
2022-07-26T06:09:03.748Z,99268.00
2022-07-26T06:10:37.051Z,99271.00
2022-07-26T06:12:10.895Z,99268.00
2022-07-26T06:13:44.345Z,99276.00
2022-07-26T06:15:18.116Z,99280.00
2022-07-26T06:16:51.616Z,99269.00
2022-07-26T06:18:24.957Z,99282.00
2022-07-26T06:20:00.318Z,99281.00
2022-07-26T06:21:33.759Z,99275.00
2022-07-26T06:23:07.731Z,99274.00
2022-07-26T06:24:41.147Z,99282.00
2022-07-26T06:26:14.659Z,99282.00
2022-07-26T06:27:48.020Z,99285.00
2022-07-26T06:29:21.412Z,99286.00
2022-07-26T06:30:55.712Z,99282.00
2022-07-26T06:32:29.074Z,99284.00
2022-07-26T06:34:02.675Z,99283.00
2022-07-26T06:35:39.055Z,99293.00
2022-07-26T06:37:12.756Z,99290.00
2022-07-26T06:38:46.092Z,99295.00
2022-07-26T06:40:22.251Z,99291.00
2022-07-26T06:41:55.613Z,99291.00
2022-07-26T06:43:29.051Z,99292.00
2022-07-26T06:45:02.804Z,99295.00
2022-07-26T06:46:36.499Z,99295.00
2022-07-26T06:48:10.517Z,99295.00
2022-07-26T06:49:44.715Z,99296.00
2022-07-26T06:51:19.544Z,99293.00
2022-07-26T06:52:52.973Z,99287.00
2022-07-26T06:54:26.408Z,99296.00
2022-07-26T06:55:59.804Z,99294.00
2022-07-26T06:57:33.520Z,99304.00
2022-07-26T06:59:18.490Z,99297.00
2022-07-26T07:00:51.969Z,99294.00
2022-07-26T07:02:26.314Z,99291.00
2022-07-26T07:03:59.722Z,99292.00
2022-07-26T07:05:33.332Z,99298.00
2022-07-26T07:07:09.131Z,99299.00
2022-07-26T07:08:42.560Z,99304.00
2022-07-26T07:10:16.030Z,99299.00
2022-07-26T07:11:51.255Z,99299.00
2022-07-26T07:13:30.286Z,99306.00
2022-07-26T07:15:03.944Z,99295.00
2022-07-26T07:16:37.424Z,99299.00
2022-07-26T07:18:10.836Z,99311.00
2022-07-26T07:19:44.121Z,99308.00
2022-07-26T07:21:17.462Z,99300.00
2022-07-26T07:22:52.372Z,99305.00
2022-07-26T07:24:26.700Z,99306.00
2022-07-26T07:26:00.692Z,99307.00
2022-07-26T07:27:34.452Z,99309.00
2022-07-26T07:29:07.161Z,99314.00
2022-07-26T07:30:41.002Z,99311.00
2022-07-26T07:32:18.233Z,99312.00
2022-07-26T07:33:53.959Z,99312.00
2022-07-26T07:35:32.133Z,99307.00
2022-07-26T07:37:06.445Z,99310.00
2022-07-26T07:38:42.866Z,99325.00
2022-07-26T07:40:17.238Z,99319.00
2022-07-26T07:41:50.937Z,99323.00
2022-07-26T07:43:24.586Z,99322.00
2022-07-26T07:45:00.491Z,99321.00
2022-07-26T07:46:34.249Z,99321.00
2022-07-26T07:48:08.149Z,99314.00
2022-07-26T07:49:42.240Z,99320.00
2022-07-26T07:51:16.154Z,99323.00
2022-07-26T07:52:51.059Z,99322.00
2022-07-26T07:54:25.962Z,99318.00
2022-07-26T07:56:00.856Z,99332.00
2022-07-26T07:57:35.625Z,99324.00
2022-07-26T07:59:09.738Z,99327.00
2022-07-26T08:00:43.806Z,99328.00
2022-07-26T08:02:17.825Z,99331.00
2022-07-26T08:03:51.870Z,99317.00
2022-07-26T08:05:25.421Z,99328.00
2022-07-26T08:06:59.294Z,99327.00
2022-07-26T08:08:33.580Z,99336.00
2022-07-26T08:10:09.924Z,99332.00
2022-07-26T08:11:43.853Z,99331.00
2022-07-26T08:13:17.230Z,99332.00
2022-07-26T08:14:55.009Z,99334.00
2022-07-26T08:16:28.641Z,99328.00
2022-07-26T08:18:02.277Z,99333.00
2022-07-26T08:19:41.685Z,99334.00
2022-07-26T08:21:16.312Z,99329.00
2022-07-26T08:22:50.152Z,99331.00
2022-07-26T08:24:23.958Z,99329.00
2022-07-26T08:26:02.048Z,99328.00
2022-07-26T08:27:41.078Z,99328.00
2022-07-26T08:29:15.365Z,99327.00
2022-07-26T08:30:49.401Z,99326.00
2022-07-26T08:32:23.701Z,99332.00
2022-07-26T08:33:57.486Z,99334.00
2022-07-26T08:35:31.776Z,99324.00
2022-07-26T08:37:19.461Z,99335.00
2022-07-26T08:38:53.619Z,99330.00
2022-07-26T08:40:28.015Z,99333.00
2022-07-26T08:42:03.998Z,99326.00
2022-07-26T08:43:51.087Z,99339.00
2022-07-26T08:45:32.621Z,99336.00
2022-07-26T08:47:07.386Z,99337.00
2022-07-26T08:48:41.582Z,99342.00
2022-07-26T08:50:15.568Z,99340.00
2022-07-26T08:51:49.299Z,99345.00
2022-07-26T08:53:23.958Z,99346.00
2022-07-26T08:54:57.291Z,99341.00
2022-07-26T08:56:30.787Z,99350.00
2022-07-26T08:58:06.128Z,99346.00
2022-07-26T08:59:40.144Z,99347.00
2022-07-26T09:01:14.496Z,99353.00
2022-07-26T09:02:50.060Z,99341.00
2022-07-26T09:04:32.758Z,99350.00
2022-07-26T09:06:16.677Z,99345.00
2022-07-26T09:07:50.191Z,99351.00
2022-07-26T09:09:23.998Z,99357.00
2022-07-26T09:10:57.976Z,99355.00
2022-07-26T09:12:33.131Z,99366.00
2022-07-26T09:14:08.136Z,99358.00
2022-07-26T09:15:41.620Z,99363.00
2022-07-26T09:17:19.410Z,99355.00
2022-07-26T09:18:53.191Z,99354.00
2022-07-26T09:20:30.028Z,99359.00
2022-07-26T09:22:10.753Z,99352.00
2022-07-26T09:23:44.284Z,99356.00
2022-07-26T09:25:25.876Z,99357.00
2022-07-26T09:27:01.564Z,99362.00
2022-07-26T09:28:34.892Z,99351.00
2022-07-26T09:30:12.075Z,99351.00
2022-07-26T09:31:45.838Z,99365.00
2022-07-26T09:33:19.663Z,99360.00
2022-07-26T09:34:58.828Z,99361.00
2022-07-26T09:36:33.563Z,99359.00
2022-07-26T09:38:14.433Z,99360.00
2022-07-26T09:39:59.419Z,99357.00
2022-07-26T09:41:36.325Z,99356.00
2022-07-26T09:43:10.064Z,99362.00
2022-07-26T09:44:47.758Z,99360.00
2022-07-26T09:46:26.053Z,99361.00
2022-07-26T09:48:00.352Z,99356.00
2022-07-26T09:49:40.658Z,99351.00
2022-07-26T09:51:14.807Z,99368.00
2022-07-26T09:53:07.493Z,99380.00
2022-07-26T09:54:41.416Z,99372.00
2022-07-26T09:56:15.579Z,99369.00
2022-07-26T09:57:51.922Z,99362.00
2022-07-26T09:59:27.755Z,99369.00
2022-07-26T10:01:02.664Z,99362.00
2022-07-26T10:02:38.111Z,99363.00
2022-07-26T10:04:12.361Z,99357.00
2022-07-26T10:05:46.303Z,99361.00
2022-07-26T10:07:20.415Z,99364.00
2022-07-26T10:08:54.255Z,99369.00
2022-07-26T10:10:32.824Z,99372.00
2022-07-26T10:12:10.366Z,99380.00
2022-07-26T10:13:43.761Z,99376.00
2022-07-26T10:15:36.378Z,99370.00
2022-07-26T10:17:47.242Z,99368.00
2022-07-26T10:19:45.740Z,99379.00
2022-07-26T10:21:25.087Z,99375.00
2022-07-26T10:22:57.618Z,99392.00
2022-07-26T10:24:31.076Z,99385.00
2022-07-26T10:26:09.799Z,99390.00
2022-07-26T10:27:45.515Z,99385.00
2022-07-26T10:29:26.797Z,99386.00
2022-07-26T10:31:31.426Z,99402.00
2022-07-26T10:33:11.292Z,99400.00
2022-07-26T10:34:44.877Z,99395.00
2022-07-26T10:36:28.678Z,99395.00
2022-07-26T10:38:06.477Z,99402.00
2022-07-26T10:39:40.636Z,99395.00
2022-07-26T10:41:14.208Z,99396.00
2022-07-26T10:42:47.734Z,99404.00
2022-07-26T10:44:28.522Z,99396.00
2022-07-26T10:46:28.026Z,99386.00
2022-07-26T10:48:18.538Z,99387.00
2022-07-26T10:49:58.514Z,99395.00
2022-07-26T10:51:36.159Z,99397.00
2022-07-26T10:53:16.517Z,99410.00
2022-07-26T10:55:18.353Z,99412.00
2022-07-26T10:56:52.589Z,99410.00
2022-07-26T10:58:28.192Z,99406.00
2022-07-26T11:00:02.615Z,99415.00
2022-07-26T11:01:37.218Z,99411.00
2022-07-26T11:03:13.060Z,99412.00
2022-07-26T11:04:51.004Z,99406.00
2022-07-26T11:06:28.755Z,99412.00
2022-07-26T11:08:09.275Z,99404.00
2022-07-26T11:09:43.937Z,99404.00
2022-07-26T11:11:30.806Z,99406.00
2022-07-26T11:13:14.668Z,99416.00
2022-07-26T11:14:48.599Z,99411.00
2022-07-26T11:16:23.293Z,99414.00
2022-07-26T11:18:32.338Z,99411.00
2022-07-26T11:20:08.251Z,99415.00
2022-07-26T11:21:42.245Z,99422.00
2022-07-26T11:23:32.624Z,99406.00
2022-07-26T11:25:07.492Z,99409.00
2022-07-26T11:26:45.581Z,99412.00
2022-07-26T11:28:21.595Z,99404.00
2022-07-26T11:30:04.504Z,99413.00
2022-07-26T11:31:50.673Z,99399.00
2022-07-26T11:33:41.514Z,99397.00
2022-07-26T11:35:14.920Z,99405.00
2022-07-26T11:36:49.700Z,99399.00
2022-07-26T11:38:23.090Z,99389.00
2022-07-26T11:39:56.653Z,99403.00
2022-07-26T11:41:34.457Z,99400.00
2022-07-26T11:43:08.620Z,99395.00
2022-07-26T11:44:45.566Z,99416.00
2022-07-26T11:46:20.486Z,99404.00
2022-07-26T11:47:59.424Z,99421.00
2022-07-26T11:49:52.825Z,99426.00
2022-07-26T11:51:29.108Z,99435.00
2022-07-26T11:53:02.555Z,99438.00
2022-07-26T11:54:48.047Z,99444.00
2022-07-26T11:56:24.376Z,99460.00
2022-07-26T11:58:04.921Z,99462.00
2022-07-26T11:59:40.283Z,99459.00
2022-07-26T12:01:17.289Z,99462.00
2022-07-26T12:02:55.633Z,99460.00
2022-07-26T12:04:33.701Z,99466.00
2022-07-26T12:06:10.397Z,99465.00
2022-07-26T12:07:59.495Z,99468.00
2022-07-26T12:09:35.860Z,99474.00
2022-07-26T12:11:08.333Z,99483.00
2022-07-26T12:12:42.156Z,99483.00
2022-07-26T12:14:26.279Z,99479.00
2022-07-26T12:16:00.752Z,99480.00
2022-07-26T12:17:35.784Z,99483.00
2022-07-26T12:19:23.056Z,99477.00
2022-07-26T12:21:08.970Z,99471.00
2022-07-26T12:22:54.191Z,99476.00
2022-07-26T12:24:58.068Z,99487.00
2022-07-26T12:26:30.862Z,99479.00
2022-07-26T12:28:06.768Z,99476.00
2022-07-26T12:29:43.009Z,99475.00
2022-07-26T12:31:29.222Z,99487.00
2022-07-26T12:33:03.191Z,99476.00
2022-07-26T12:34:38.054Z,99478.00
2022-07-26T12:36:27.033Z,99480.00
2022-07-26T12:38:04.720Z,99475.00
2022-07-26T12:39:38.348Z,99472.00
2022-07-26T12:41:13.725Z,99474.00
2022-07-26T12:43:01.058Z,99469.00
2022-07-26T12:44:37.956Z,99467.00
2022-07-26T12:46:11.988Z,99467.00
2022-07-26T12:47:49.539Z,99468.00
2022-07-26T12:49:23.065Z,99466.00
2022-07-26T12:50:58.698Z,99467.00
2022-07-26T12:52:34.713Z,99459.00
2022-07-26T12:54:08.696Z,99455.00
2022-07-26T12:55:42.517Z,99444.00
2022-07-26T12:57:17.361Z,99453.00
2022-07-26T12:58:50.948Z,99454.00
2022-07-26T13:00:24.787Z,99457.00
2022-07-26T13:01:58.479Z,99446.00
2022-07-26T13:03:31.849Z,99453.00
2022-07-26T13:05:07.263Z,99448.00
2022-07-26T13:06:40.664Z,99449.00
2022-07-26T13:08:15.569Z,99447.00
2022-07-26T13:10:03.056Z,99445.00
2022-07-26T13:11:43.831Z,99441.00
2022-07-26T13:13:17.426Z,99447.00
2022-07-26T13:14:51.468Z,99447.00
2022-07-26T13:16:24.987Z,99454.00
2022-07-26T13:17:58.537Z,99442.00
2022-07-26T13:19:33.611Z,99450.00
2022-07-26T13:21:07.535Z,99456.00
2022-07-26T13:22:41.080Z,99449.00
2022-07-26T13:24:16.054Z,99466.00
2022-07-26T13:25:50.750Z,99451.00
2022-07-26T13:27:24.593Z,99448.00
2022-07-26T13:28:58.543Z,99446.00
2022-07-26T13:30:32.039Z,99444.00
2022-07-26T13:32:07.650Z,99444.00
2022-07-26T13:33:40.513Z,99454.00
2022-07-26T13:35:13.962Z,99434.00
2022-07-26T13:36:48.778Z,99439.00
2022-07-26T13:38:22.739Z,99448.00
2022-07-26T13:39:57.673Z,99446.00
2022-07-26T13:41:31.362Z,99445.00
2022-07-26T13:43:09.602Z,99448.00
2022-07-26T13:44:43.392Z,99444.00
2022-07-26T13:46:16.895Z,99448.00
2022-07-26T13:47:50.372Z,99446.00
2022-07-26T13:49:23.828Z,99461.00
2022-07-26T13:50:58.012Z,99449.00
2022-07-26T13:52:31.321Z,99455.00
2022-07-26T13:54:05.240Z,99454.00
2022-07-26T13:55:40.078Z,99452.00
2022-07-26T13:57:13.619Z,99455.00
2022-07-26T13:58:47.341Z,99457.00
2022-07-26T14:00:21.204Z,99452.00
2022-07-26T14:01:56.088Z,99452.00
2022-07-26T14:03:35.248Z,99457.00
2022-07-26T14:05:10.609Z,99460.00
2022-07-26T14:06:44.198Z,99460.00
2022-07-26T14:08:17.780Z,99452.00
2022-07-26T14:09:51.179Z,99454.00
2022-07-26T14:11:26.483Z,99461.00
2022-07-26T14:13:00.633Z,99460.00
2022-07-26T14:14:34.064Z,99462.00
2022-07-26T14:16:07.696Z,99451.00
2022-07-26T14:17:41.456Z,99462.00
2022-07-26T14:19:14.859Z,99463.00
2022-07-26T14:20:48.494Z,99461.00
2022-07-26T14:22:21.984Z,99470.00
2022-07-26T14:23:58.044Z,99469.00
2022-07-26T14:25:32.097Z,99465.00
2022-07-26T14:27:08.417Z,99467.00
2022-07-26T14:28:42.360Z,99463.00
2022-07-26T14:30:16.339Z,99462.00
2022-07-26T14:31:50.534Z,99462.00
2022-07-26T14:33:23.945Z,99457.00
2022-07-26T14:34:57.513Z,99458.00
2022-07-26T14:36:31.021Z,99463.00
2022-07-26T14:38:04.495Z,99470.00
2022-07-26T14:39:38.041Z,99469.00
2022-07-26T14:41:12.705Z,99462.00
2022-07-26T14:42:47.724Z,99464.00
2022-07-26T14:44:21.070Z,99469.00
2022-07-26T14:45:54.557Z,99464.00
2022-07-26T14:47:28.005Z,99464.00
2022-07-26T14:49:01.352Z,99466.00
2022-07-26T14:50:53.076Z,99470.00
2022-07-26T14:52:28.412Z,99465.00
2022-07-26T14:54:01.752Z,99468.00
2022-07-26T14:55:35.252Z,99471.00
2022-07-26T14:57:08.868Z,99468.00
2022-07-26T14:58:43.988Z,99469.00
2022-07-26T15:00:19.427Z,99475.00
2022-07-26T15:01:53.099Z,99469.00
2022-07-26T15:03:26.532Z,99471.00
2022-07-26T15:05:00.153Z,99467.00
2022-07-26T15:06:33.512Z,99464.00
2022-07-26T15:08:07.298Z,99468.00
2022-07-26T15:09:41.291Z,99460.00
2022-07-26T15:11:16.280Z,99466.00
2022-07-26T15:12:49.747Z,99465.00
2022-07-26T15:14:25.259Z,99464.00
2022-07-26T15:15:58.942Z,99468.00
2022-07-26T15:17:32.825Z,99474.00
2022-07-26T15:19:06.899Z,99473.00
2022-07-26T15:20:43.204Z,99469.00
2022-07-26T15:22:17.235Z,99472.00
2022-07-26T15:23:51.202Z,99471.00
2022-07-26T15:25:25.680Z,99472.00
2022-07-26T15:26:59.965Z,99468.00
2022-07-26T15:28:33.558Z,99469.00
2022-07-26T15:30:13.564Z,99468.00
2022-07-26T15:31:49.076Z,99468.00
2022-07-26T15:33:22.646Z,99458.00
2022-07-26T15:34:56.156Z,99470.00
2022-07-26T15:36:32.826Z,99469.00
2022-07-26T15:38:06.539Z,99468.00
2022-07-26T15:39:39.983Z,99472.00
2022-07-26T15:41:17.688Z,99472.00
2022-07-26T15:42:52.218Z,99477.00
2022-07-26T15:44:27.133Z,99474.00
2022-07-26T15:46:02.241Z,99479.00
2022-07-26T15:47:53.626Z,99472.00
2022-07-26T15:49:28.999Z,99474.00
2022-07-26T15:51:02.878Z,99484.00
2022-07-26T15:52:42.363Z,99484.00
2022-07-26T15:54:16.464Z,99489.00
2022-07-26T15:55:50.272Z,99486.00
2022-07-26T15:57:23.710Z,99494.00
2022-07-26T15:58:57.357Z,99500.00
2022-07-26T16:00:31.258Z,99497.00
2022-07-26T16:02:07.940Z,99491.00
2022-07-26T16:03:41.559Z,99494.00
2022-07-26T16:05:15.388Z,99503.00
2022-07-26T16:06:48.813Z,99501.00
2022-07-26T16:08:22.204Z,99502.00
2022-07-26T16:09:55.792Z,99506.00
2022-07-26T16:11:29.696Z,99498.00
2022-07-26T16:13:03.227Z,99506.00
2022-07-26T16:14:36.613Z,99504.00
2022-07-26T16:16:10.668Z,99508.00
2022-07-26T16:17:45.627Z,99504.00
2022-07-26T16:19:19.052Z,99507.00
2022-07-26T16:20:52.438Z,99507.00
2022-07-26T16:22:26.021Z,99512.00
2022-07-26T16:24:06.043Z,99504.00
2022-07-26T16:25:40.324Z,99508.00
2022-07-26T16:27:15.228Z,99511.00
2022-07-26T16:28:48.944Z,99504.00
2022-07-26T16:30:22.523Z,99509.00
2022-07-26T16:31:56.719Z,99508.00
2022-07-26T16:33:31.651Z,99507.00
2022-07-26T16:35:07.783Z,99508.00
2022-07-26T16:36:42.159Z,99510.00
2022-07-26T16:38:15.698Z,99504.00
2022-07-26T16:39:49.310Z,99510.00
2022-07-26T16:41:22.755Z,99497.00
2022-07-26T16:42:56.172Z,99494.00
2022-07-26T16:44:29.533Z,99497.00
2022-07-26T16:46:03.432Z,99497.00
2022-07-26T16:47:37.384Z,99504.00
2022-07-26T16:49:12.839Z,99497.00
2022-07-26T16:50:46.660Z,99496.00
2022-07-26T16:52:20.310Z,99498.00
2022-07-26T16:53:53.845Z,99499.00
2022-07-26T16:55:27.631Z,99492.00
2022-07-26T16:57:02.060Z,99498.00
2022-07-26T16:58:38.636Z,99495.00
2022-07-26T17:00:21.405Z,99496.00
2022-07-26T17:01:59.565Z,99496.00
2022-07-26T17:03:36.424Z,99499.00
2022-07-26T17:05:11.764Z,99501.00
2022-07-26T17:07:02.000Z,99501.00
2022-07-26T17:08:42.499Z,99500.00
2022-07-26T17:10:16.280Z,99508.00
2022-07-26T17:11:49.679Z,99503.00
2022-07-26T17:13:23.080Z,99506.00
2022-07-26T17:14:57.292Z,99499.00
2022-07-26T17:16:30.823Z,99499.00
2022-07-26T17:18:04.837Z,99506.00
2022-07-26T17:19:38.191Z,99509.00
2022-07-26T17:21:13.037Z,99509.00
2022-07-26T17:22:46.552Z,99503.00
2022-07-26T17:24:19.991Z,99510.00
2022-07-26T17:25:54.354Z,99506.00
2022-07-26T17:27:27.847Z,99510.00
2022-07-26T17:29:01.165Z,99506.00
2022-07-26T17:30:34.625Z,99504.00
2022-07-26T17:32:09.650Z,99513.00
2022-07-26T17:33:43.974Z,99513.00
2022-07-26T17:35:17.587Z,99501.00
2022-07-26T17:37:00.587Z,99505.00
2022-07-26T17:38:34.160Z,99510.00
2022-07-26T17:40:12.094Z,99516.00
2022-07-26T17:41:49.116Z,99522.00
2022-07-26T17:43:22.673Z,99529.00
2022-07-26T17:44:56.443Z,99513.00
2022-07-26T17:46:32.474Z,99527.00
2022-07-26T17:48:07.005Z,99531.00
2022-07-26T17:49:41.391Z,99526.00
2022-07-26T17:51:15.865Z,99522.00
2022-07-26T17:52:52.031Z,99527.00
2022-07-26T17:54:27.013Z,99531.00
2022-07-26T17:56:00.449Z,99534.00
2022-07-26T17:57:34.155Z,99531.00
2022-07-26T17:59:08.761Z,99535.00
2022-07-26T18:00:42.666Z,99534.00
2022-07-26T18:02:17.354Z,99535.00
2022-07-26T18:03:51.582Z,99531.00
2022-07-26T18:05:33.118Z,99536.00
2022-07-26T18:07:08.525Z,99534.00
2022-07-26T18:08:43.538Z,99543.00
2022-07-26T18:10:17.184Z,99535.00
2022-07-26T18:11:50.596Z,99534.00
2022-07-26T18:13:24.188Z,99539.00
2022-07-26T18:14:58.163Z,99541.00
2022-07-26T18:16:32.484Z,99534.00
2022-07-26T18:18:07.851Z,99534.00
2022-07-26T18:19:42.042Z,99541.00
2022-07-26T18:21:15.575Z,99538.00
2022-07-26T18:22:50.153Z,99540.00
2022-07-26T18:24:25.431Z,99535.00
2022-07-26T18:25:59.344Z,99534.00
2022-07-26T18:27:32.975Z,99537.00
2022-07-26T18:29:08.235Z,99523.00
2022-07-26T18:30:41.884Z,99525.00
2022-07-26T18:32:16.280Z,99514.00
2022-07-26T18:33:50.184Z,99515.00
2022-07-26T18:35:24.217Z,99513.00
2022-07-26T18:36:57.833Z,99514.00
2022-07-26T18:38:34.153Z,99520.00
2022-07-26T18:40:11.347Z,99518.00
2022-07-26T18:41:45.048Z,99517.00